sensor_id;sensor_type;location;lat;lon;timestamp;P1;durP1;ratioP1;P2;durP2;ratioP2
72194;SDS011;60095;50.180;9.032;2022-07-21T00:01:27;13.57;;;12.25;;
72194;SDS011;60095;50.180;9.032;2022-07-21T00:03:54;13.63;;;12.25;;
72194;SDS011;60095;50.180;9.032;2022-07-21T00:06:20;14.98;;;12.13;;
72194;SDS011;60095;50.180;9.032;2022-07-21T00:08:47;15.68;;;13.77;;
72194;SDS011;60095;50.180;9.032;2022-07-21T00:11:13;18.20;;;13.55;;
72194;SDS011;60095;50.180;9.032;2022-07-21T00:13:39;13.95;;;12.52;;
72194;SDS011;60095;50.180;9.032;2022-07-21T00:16:06;15.35;;;13.85;;
72194;SDS011;60095;50.180;9.032;2022-07-21T00:18:34;18.30;;;16.30;;
72194;SDS011;60095;50.180;9.032;2022-07-21T00:21:01;22.27;;;19.98;;
72194;SDS011;60095;50.180;9.032;2022-07-21T00:23:27;19.75;;;17.85;;
72194;SDS011;60095;50.180;9.032;2022-07-21T00:25:54;22.25;;;19.70;;
72194;SDS011;60095;50.180;9.032;2022-07-21T00:28:20;22.27;;;18.75;;
72194;SDS011;60095;50.180;9.032;2022-07-21T00:30:46;26.85;;;20.30;;
72194;SDS011;60095;50.180;9.032;2022-07-21T00:33:13;24.05;;;17.98;;
72194;SDS011;60095;50.180;9.032;2022-07-21T00:35:41;22.70;;;20.30;;
72194;SDS011;60095;50.180;9.032;2022-07-21T00:38:07;20.88;;;18.80;;
72194;SDS011;60095;50.180;9.032;2022-07-21T00:40:33;21.77;;;19.83;;
72194;SDS011;60095;50.180;9.032;2022-07-21T00:42:59;17.55;;;15.73;;
72194;SDS011;60095;50.180;9.032;2022-07-21T00:45:26;23.15;;;20.92;;
72194;SDS011;60095;50.180;9.032;2022-07-21T00:47:52;19.38;;;17.25;;
72194;SDS011;60095;50.180;9.032;2022-07-21T00:50:19;26.05;;;17.80;;
72194;SDS011;60095;50.180;9.032;2022-07-21T00:52:47;18.48;;;16.88;;
72194;SDS011;60095;50.180;9.032;2022-07-21T00:55:14;27.10;;;20.40;;
72194;SDS011;60095;50.180;9.032;2022-07-21T00:57:41;23.67;;;18.25;;
72194;SDS011;60095;50.180;9.032;2022-07-21T01:00:08;18.67;;;16.83;;
72194;SDS011;60095;50.180;9.032;2022-07-21T01:02:35;19.92;;;17.83;;
72194;SDS011;60095;50.180;9.032;2022-07-21T01:05:02;17.90;;;16.38;;
72194;SDS011;60095;50.180;9.032;2022-07-21T01:07:28;20.58;;;18.73;;
72194;SDS011;60095;50.180;9.032;2022-07-21T01:09:56;20.90;;;18.83;;
72194;SDS011;60095;50.180;9.032;2022-07-21T01:12:23;20.63;;;18.55;;
72194;SDS011;60095;50.180;9.032;2022-07-21T01:14:49;21.10;;;18.98;;
72194;SDS011;60095;50.180;9.032;2022-07-21T01:17:15;20.45;;;18.08;;
72194;SDS011;60095;50.180;9.032;2022-07-21T01:19:42;22.55;;;20.45;;
72194;SDS011;60095;50.180;9.032;2022-07-21T01:22:09;19.92;;;18.27;;
72194;SDS011;60095;50.180;9.032;2022-07-21T01:24:36;20.40;;;18.40;;
72194;SDS011;60095;50.180;9.032;2022-07-21T01:27:03;18.23;;;16.50;;
72194;SDS011;60095;50.180;9.032;2022-07-21T01:29:29;26.23;;;19.58;;
72194;SDS011;60095;50.180;9.032;2022-07-21T01:31:55;21.10;;;18.55;;
72194;SDS011;60095;50.180;9.032;2022-07-21T01:34:22;21.17;;;18.95;;
72194;SDS011;60095;50.180;9.032;2022-07-21T01:36:48;20.10;;;17.25;;
72194;SDS011;60095;50.180;9.032;2022-07-21T01:39:16;20.50;;;18.52;;
72194;SDS011;60095;50.180;9.032;2022-07-21T01:41:59;17.02;;;15.48;;
72194;SDS011;60095;50.180;9.032;2022-07-21T01:44:26;19.00;;;17.10;;
72194;SDS011;60095;50.180;9.032;2022-07-21T01:46:53;21.35;;;18.02;;
72194;SDS011;60095;50.180;9.032;2022-07-21T01:49:19;20.33;;;18.20;;
72194;SDS011;60095;50.180;9.032;2022-07-21T01:51:46;20.00;;;18.00;;
72194;SDS011;60095;50.180;9.032;2022-07-21T01:54:12;20.25;;;18.17;;
72194;SDS011;60095;50.180;9.032;2022-07-21T01:56:40;20.30;;;17.95;;
72194;SDS011;60095;50.180;9.032;2022-07-21T01:59:07;18.73;;;16.80;;
72194;SDS011;60095;50.180;9.032;2022-07-21T02:01:33;21.92;;;19.20;;
72194;SDS011;60095;50.180;9.032;2022-07-21T02:04:00;19.95;;;18.35;;
72194;SDS011;60095;50.180;9.032;2022-07-21T02:06:27;19.90;;;17.98;;
72194;SDS011;60095;50.180;9.032;2022-07-21T02:08:53;20.95;;;16.08;;
72194;SDS011;60095;50.180;9.032;2022-07-21T02:11:20;17.27;;;15.55;;
72194;SDS011;60095;50.180;9.032;2022-07-21T02:13:48;25.10;;;17.80;;
72194;SDS011;60095;50.180;9.032;2022-07-21T02:16:14;18.48;;;16.77;;
72194;SDS011;60095;50.180;9.032;2022-07-21T02:18:41;19.27;;;17.25;;
72194;SDS011;60095;50.180;9.032;2022-07-21T02:21:07;17.50;;;15.75;;
72194;SDS011;60095;50.180;9.032;2022-07-21T02:23:34;18.90;;;17.05;;
72194;SDS011;60095;50.180;9.032;2022-07-21T02:26:01;18.10;;;16.27;;
72194;SDS011;60095;50.180;9.032;2022-07-21T02:28:27;19.67;;;17.88;;
72194;SDS011;60095;50.180;9.032;2022-07-21T02:30:55;18.60;;;16.77;;
72194;SDS011;60095;50.180;9.032;2022-07-21T02:33:21;16.85;;;15.15;;
72194;SDS011;60095;50.180;9.032;2022-07-21T02:35:47;18.23;;;16.38;;
72194;SDS011;60095;50.180;9.032;2022-07-21T02:38:14;15.57;;;14.18;;
72194;SDS011;60095;50.180;9.032;2022-07-21T02:40:41;18.73;;;17.02;;
72194;SDS011;60095;50.180;9.032;2022-07-21T02:43:07;17.55;;;15.80;;
72194;SDS011;60095;50.180;9.032;2022-07-21T02:45:34;19.25;;;17.30;;
72194;SDS011;60095;50.180;9.032;2022-07-21T02:48:07;18.67;;;16.52;;
72194;SDS011;60095;50.180;9.032;2022-07-21T02:50:35;16.20;;;14.40;;
72194;SDS011;60095;50.180;9.032;2022-07-21T02:53:03;19.23;;;17.13;;
72194;SDS011;60095;50.180;9.032;2022-07-21T02:55:29;16.45;;;14.73;;
72194;SDS011;60095;50.180;9.032;2022-07-21T02:58:03;16.90;;;15.40;;
72194;SDS011;60095;50.180;9.032;2022-07-21T03:00:29;18.20;;;15.38;;
72194;SDS011;60095;50.180;9.032;2022-07-21T03:02:55;15.05;;;13.60;;
72194;SDS011;60095;50.180;9.032;2022-07-21T03:05:23;21.60;;;15.95;;
72194;SDS011;60095;50.180;9.032;2022-07-21T03:07:49;17.25;;;15.60;;
72194;SDS011;60095;50.180;9.032;2022-07-21T03:10:16;19.38;;;15.65;;
72194;SDS011;60095;50.180;9.032;2022-07-21T03:12:42;17.92;;;16.15;;
72194;SDS011;60095;50.180;9.032;2022-07-21T03:15:09;19.55;;;16.00;;
72194;SDS011;60095;50.180;9.032;2022-07-21T03:17:35;21.65;;;18.15;;
72194;SDS011;60095;50.180;9.032;2022-07-21T03:20:02;19.35;;;17.48;;
72194;SDS011;60095;50.180;9.032;2022-07-21T03:22:30;22.10;;;19.83;;
72194;SDS011;60095;50.180;9.032;2022-07-21T03:24:56;20.73;;;18.60;;
72194;SDS011;60095;50.180;9.032;2022-07-21T03:27:22;19.58;;;17.00;;
72194;SDS011;60095;50.180;9.032;2022-07-21T03:29:49;22.17;;;19.02;;
72194;SDS011;60095;50.180;9.032;2022-07-21T03:32:15;19.67;;;17.42;;
72194;SDS011;60095;50.180;9.032;2022-07-21T03:34:41;20.25;;;15.57;;
72194;SDS011;60095;50.180;9.032;2022-07-21T03:37:10;12.25;;;10.23;;
72194;SDS011;60095;50.180;9.032;2022-07-21T03:39:37;10.20;;;8.73;;
72194;SDS011;60095;50.180;9.032;2022-07-21T03:42:04;15.80;;;10.88;;
72194;SDS011;60095;50.180;9.032;2022-07-21T03:44:30;11.70;;;10.50;;
72194;SDS011;60095;50.180;9.032;2022-07-21T03:46:56;12.82;;;11.18;;
72194;SDS011;60095;50.180;9.032;2022-07-21T03:49:24;14.00;;;9.25;;
72194;SDS011;60095;50.180;9.032;2022-07-21T03:51:51;9.07;;;8.27;;
72194;SDS011;60095;50.180;9.032;2022-07-21T03:54:17;10.02;;;9.13;;
72194;SDS011;60095;50.180;9.032;2022-07-21T03:56:45;11.23;;;8.95;;
72194;SDS011;60095;50.180;9.032;2022-07-21T03:59:11;13.35;;;12.07;;
72194;SDS011;60095;50.180;9.032;2022-07-21T04:01:37;10.82;;;9.85;;
72194;SDS011;60095;50.180;9.032;2022-07-21T04:04:04;11.27;;;10.27;;
72194;SDS011;60095;50.180;9.032;2022-07-21T04:06:30;9.43;;;8.52;;
72194;SDS011;60095;50.180;9.032;2022-07-21T04:08:56;11.43;;;10.38;;
72194;SDS011;60095;50.180;9.032;2022-07-21T04:11:23;12.15;;;10.65;;
72194;SDS011;60095;50.180;9.032;2022-07-21T04:13:50;12.68;;;10.00;;
72194;SDS011;60095;50.180;9.032;2022-07-21T04:16:17;11.27;;;10.27;;
72194;SDS011;60095;50.180;9.032;2022-07-21T04:18:43;11.35;;;9.88;;
72194;SDS011;60095;50.180;9.032;2022-07-21T04:21:09;13.10;;;9.77;;
72194;SDS011;60095;50.180;9.032;2022-07-21T04:23:36;11.68;;;10.68;;
72194;SDS011;60095;50.180;9.032;2022-07-21T04:26:02;12.98;;;10.35;;
72194;SDS011;60095;50.180;9.032;2022-07-21T04:28:28;9.75;;;8.82;;
72194;SDS011;60095;50.180;9.032;2022-07-21T04:30:56;12.02;;;9.98;;
72194;SDS011;60095;50.180;9.032;2022-07-21T04:33:22;11.75;;;10.00;;
72194;SDS011;60095;50.180;9.032;2022-07-21T04:35:49;12.18;;;11.05;;
72194;SDS011;60095;50.180;9.032;2022-07-21T04:38:15;10.43;;;9.52;;
72194;SDS011;60095;50.180;9.032;2022-07-21T04:40:42;11.32;;;10.23;;
72194;SDS011;60095;50.180;9.032;2022-07-21T04:43:09;10.40;;;9.20;;
72194;SDS011;60095;50.180;9.032;2022-07-21T04:45:35;12.00;;;10.80;;
72194;SDS011;60095;50.180;9.032;2022-07-21T04:48:03;11.25;;;10.13;;
72194;SDS011;60095;50.180;9.032;2022-07-21T04:50:30;16.25;;;11.82;;
72194;SDS011;60095;50.180;9.032;2022-07-21T04:52:57;11.88;;;10.82;;
72194;SDS011;60095;50.180;9.032;2022-07-21T04:55:24;11.52;;;10.25;;
72194;SDS011;60095;50.180;9.032;2022-07-21T04:57:51;10.93;;;9.98;;
72194;SDS011;60095;50.180;9.032;2022-07-21T05:00:18;10.70;;;8.77;;
72194;SDS011;60095;50.180;9.032;2022-07-21T05:02:45;10.38;;;9.35;;
72194;SDS011;60095;50.180;9.032;2022-07-21T05:05:13;9.70;;;7.97;;
72194;SDS011;60095;50.180;9.032;2022-07-21T05:07:39;10.80;;;9.80;;
72194;SDS011;60095;50.180;9.032;2022-07-21T05:10:06;10.65;;;8.93;;
72194;SDS011;60095;50.180;9.032;2022-07-21T05:12:32;9.45;;;8.55;;
72194;SDS011;60095;50.180;9.032;2022-07-21T05:14:59;9.55;;;8.70;;
72194;SDS011;60095;50.180;9.032;2022-07-21T05:17:25;9.90;;;9.00;;
72194;SDS011;60095;50.180;9.032;2022-07-21T05:19:51;8.77;;;7.97;;
72194;SDS011;60095;50.180;9.032;2022-07-21T05:22:19;8.90;;;8.13;;
72194;SDS011;60095;50.180;9.032;2022-07-21T05:24:45;9.48;;;8.55;;
72194;SDS011;60095;50.180;9.032;2022-07-21T05:27:12;9.57;;;8.63;;
72194;SDS011;60095;50.180;9.032;2022-07-21T05:29:38;9.02;;;8.23;;
72194;SDS011;60095;50.180;9.032;2022-07-21T05:32:05;8.30;;;7.50;;
72194;SDS011;60095;50.180;9.032;2022-07-21T05:34:32;8.82;;;7.00;;
72194;SDS011;60095;50.180;9.032;2022-07-21T05:36:58;7.35;;;6.68;;
72194;SDS011;60095;50.180;9.032;2022-07-21T05:39:26;7.70;;;6.35;;
72194;SDS011;60095;50.180;9.032;2022-07-21T05:41:52;5.32;;;4.82;;
72194;SDS011;60095;50.180;9.032;2022-07-21T05:44:18;5.75;;;5.25;;
72194;SDS011;60095;50.180;9.032;2022-07-21T05:46:45;7.15;;;6.55;;
72194;SDS011;60095;50.180;9.032;2022-07-21T05:49:11;8.30;;;6.82;;
72194;SDS011;60095;50.180;9.032;2022-07-21T05:51:37;6.15;;;5.55;;
72194;SDS011;60095;50.180;9.032;2022-07-21T05:54:04;9.70;;;8.18;;
72194;SDS011;60095;50.180;9.032;2022-07-21T05:56:31;6.28;;;5.68;;
72194;SDS011;60095;50.180;9.032;2022-07-21T05:58:58;6.90;;;5.47;;
72194;SDS011;60095;50.180;9.032;2022-07-21T06:01:24;5.53;;;4.75;;
72194;SDS011;60095;50.180;9.032;2022-07-21T06:03:51;4.75;;;4.35;;
72194;SDS011;60095;50.180;9.032;2022-07-21T06:06:18;7.07;;;5.35;;
72194;SDS011;60095;50.180;9.032;2022-07-21T06:08:45;7.07;;;5.57;;
72194;SDS011;60095;50.180;9.032;2022-07-21T06:11:12;5.28;;;4.80;;
72194;SDS011;60095;50.180;9.032;2022-07-21T06:13:40;6.35;;;5.85;;
72194;SDS011;60095;50.180;9.032;2022-07-21T06:16:07;5.53;;;4.57;;
72194;SDS011;60095;50.180;9.032;2022-07-21T06:18:34;6.40;;;5.53;;
72194;SDS011;60095;50.180;9.032;2022-07-21T06:21:00;8.75;;;6.05;;
72194;SDS011;60095;50.180;9.032;2022-07-21T06:23:26;6.63;;;4.30;;
72194;SDS011;60095;50.180;9.032;2022-07-21T06:25:53;5.20;;;4.70;;
72194;SDS011;60095;50.180;9.032;2022-07-21T06:28:19;7.72;;;5.60;;
72194;SDS011;60095;50.180;9.032;2022-07-21T06:30:47;6.97;;;4.57;;
72194;SDS011;60095;50.180;9.032;2022-07-21T06:33:14;7.57;;;6.03;;
72194;SDS011;60095;50.180;9.032;2022-07-21T06:35:40;7.95;;;5.80;;
72194;SDS011;60095;50.180;9.032;2022-07-21T06:38:07;4.22;;;3.88;;
72194;SDS011;60095;50.180;9.032;2022-07-21T06:40:33;7.63;;;5.00;;
72194;SDS011;60095;50.180;9.032;2022-07-21T06:42:59;5.15;;;4.57;;
72194;SDS011;60095;50.180;9.032;2022-07-21T06:45:26;4.68;;;4.28;;
72194;SDS011;60095;50.180;9.032;2022-07-21T06:47:59;6.70;;;5.95;;
72194;SDS011;60095;50.180;9.032;2022-07-21T06:52:52;9.77;;;6.35;;
72194;SDS011;60095;50.180;9.032;2022-07-21T06:55:18;7.05;;;5.32;;
72194;SDS011;60095;50.180;9.032;2022-07-21T06:57:45;5.93;;;5.25;;
72194;SDS011;60095;50.180;9.032;2022-07-21T07:00:11;5.15;;;4.63;;
72194;SDS011;60095;50.180;9.032;2022-07-21T07:02:38;8.30;;;5.25;;
72194;SDS011;60095;50.180;9.032;2022-07-21T07:05:06;6.35;;;5.10;;
72194;SDS011;60095;50.180;9.032;2022-07-21T07:07:32;6.18;;;4.18;;
72194;SDS011;60095;50.180;9.032;2022-07-21T07:09:59;5.38;;;4.25;;
72194;SDS011;60095;50.180;9.032;2022-07-21T07:12:27;4.82;;;4.43;;
72194;SDS011;60095;50.180;9.032;2022-07-21T07:14:53;6.32;;;4.82;;
72194;SDS011;60095;50.180;9.032;2022-07-21T07:17:20;15.05;;;5.35;;
72194;SDS011;60095;50.180;9.032;2022-07-21T07:19:46;5.50;;;3.88;;
72194;SDS011;60095;50.180;9.032;2022-07-21T07:22:14;8.18;;;5.00;;
72194;SDS011;60095;50.180;9.032;2022-07-21T07:24:41;14.73;;;4.40;;
72194;SDS011;60095;50.180;9.032;2022-07-21T07:27:07;6.47;;;4.43;;
72194;SDS011;60095;50.180;9.032;2022-07-21T07:29:33;9.55;;;5.80;;
72194;SDS011;60095;50.180;9.032;2022-07-21T07:32:00;8.57;;;4.35;;
72194;SDS011;60095;50.180;9.032;2022-07-21T07:34:26;4.38;;;3.55;;
72194;SDS011;60095;50.180;9.032;2022-07-21T07:36:52;9.38;;;4.40;;
72194;SDS011;60095;50.180;9.032;2022-07-21T07:39:20;4.40;;;4.00;;
72194;SDS011;60095;50.180;9.032;2022-07-21T07:41:46;5.18;;;3.20;;
72194;SDS011;60095;50.180;9.032;2022-07-21T07:44:13;3.60;;;3.30;;
72194;SDS011;60095;50.180;9.032;2022-07-21T07:46:39;7.75;;;4.40;;
72194;SDS011;60095;50.180;9.032;2022-07-21T07:49:05;4.95;;;3.08;;
72194;SDS011;60095;50.180;9.032;2022-07-21T07:51:32;11.25;;;4.68;;
72194;SDS011;60095;50.180;9.032;2022-07-21T07:53:58;3.90;;;3.47;;
72194;SDS011;60095;50.180;9.032;2022-07-21T07:56:27;4.93;;;4.45;;
72194;SDS011;60095;50.180;9.032;2022-07-21T07:58:53;6.88;;;4.60;;
72194;SDS011;60095;50.180;9.032;2022-07-21T08:01:19;5.45;;;4.93;;
72194;SDS011;60095;50.180;9.032;2022-07-21T08:03:47;4.40;;;3.65;;
72194;SDS011;60095;50.180;9.032;2022-07-21T08:06:14;5.45;;;3.75;;
72194;SDS011;60095;50.180;9.032;2022-07-21T08:08:40;5.75;;;4.07;;
72194;SDS011;60095;50.180;9.032;2022-07-21T08:11:06;4.35;;;3.72;;
72194;SDS011;60095;50.180;9.032;2022-07-21T08:13:35;4.05;;;3.65;;
72194;SDS011;60095;50.180;9.032;2022-07-21T08:16:02;4.80;;;4.40;;
72194;SDS011;60095;50.180;9.032;2022-07-21T08:18:28;9.38;;;3.78;;
72194;SDS011;60095;50.180;9.032;2022-07-21T08:20:55;11.90;;;4.45;;
72194;SDS011;60095;50.180;9.032;2022-07-21T08:23:21;6.00;;;4.40;;
72194;SDS011;60095;50.180;9.032;2022-07-21T08:25:47;3.92;;;3.22;;
72194;SDS011;60095;50.180;9.032;2022-07-21T08:28:14;3.10;;;2.80;;
72194;SDS011;60095;50.180;9.032;2022-07-21T08:30:41;9.65;;;3.22;;
72194;SDS011;60095;50.180;9.032;2022-07-21T08:33:08;4.25;;;3.85;;
72194;SDS011;60095;50.180;9.032;2022-07-21T08:35:34;3.55;;;3.20;;
72194;SDS011;60095;50.180;9.032;2022-07-21T08:38:02;4.97;;;3.17;;
72194;SDS011;60095;50.180;9.032;2022-07-21T08:40:29;10.63;;;3.25;;
72194;SDS011;60095;50.180;9.032;2022-07-21T08:42:56;8.80;;;3.15;;
72194;SDS011;60095;50.180;9.032;2022-07-21T08:45:22;8.68;;;2.92;;
72194;SDS011;60095;50.180;9.032;2022-07-21T08:47:51;5.15;;;3.45;;
72194;SDS011;60095;50.180;9.032;2022-07-21T08:50:18;3.45;;;3.10;;
72194;SDS011;60095;50.180;9.032;2022-07-21T08:52:45;2.55;;;2.38;;
72194;SDS011;60095;50.180;9.032;2022-07-21T08:55:11;6.25;;;3.47;;
72194;SDS011;60095;50.180;9.032;2022-07-21T08:57:38;9.50;;;3.35;;
72194;SDS011;60095;50.180;9.032;2022-07-21T09:00:05;11.07;;;2.88;;
72194;SDS011;60095;50.180;9.032;2022-07-21T09:02:32;4.03;;;2.85;;
72194;SDS011;60095;50.180;9.032;2022-07-21T09:05:00;5.70;;;3.72;;
72194;SDS011;60095;50.180;9.032;2022-07-21T09:07:28;5.95;;;3.35;;
72194;SDS011;60095;50.180;9.032;2022-07-21T09:09:55;4.40;;;3.72;;
72194;SDS011;60095;50.180;9.032;2022-07-21T09:12:22;4.80;;;3.22;;
72194;SDS011;60095;50.180;9.032;2022-07-21T09:14:48;7.97;;;3.58;;
72194;SDS011;60095;50.180;9.032;2022-07-21T09:17:15;4.47;;;2.75;;
72194;SDS011;60095;50.180;9.032;2022-07-21T09:19:43;2.65;;;2.35;;
72194;SDS011;60095;50.180;9.032;2022-07-21T09:22:13;2.65;;;2.25;;
72194;SDS011;60095;50.180;9.032;2022-07-21T09:24:42;4.38;;;3.85;;
72194;SDS011;60095;50.180;9.032;2022-07-21T09:27:14;2.40;;;2.15;;
72194;SDS011;60095;50.180;9.032;2022-07-21T09:29:42;4.38;;;3.10;;
72194;SDS011;60095;50.180;9.032;2022-07-21T09:32:12;3.30;;;2.28;;
72194;SDS011;60095;50.180;9.032;2022-07-21T09:34:39;1.80;;;1.30;;
72194;SDS011;60095;50.180;9.032;2022-07-21T09:37:06;2.20;;;1.75;;
72194;SDS011;60095;50.180;9.032;2022-07-21T09:39:46;3.30;;;2.75;;
72194;SDS011;60095;50.180;9.032;2022-07-21T09:42:14;2.70;;;1.95;;
72194;SDS011;60095;50.180;9.032;2022-07-21T09:44:41;1.02;;;0.93;;
72194;SDS011;60095;50.180;9.032;2022-07-21T09:47:12;2.17;;;1.50;;
72194;SDS011;60095;50.180;9.032;2022-07-21T09:49:39;4.28;;;1.73;;
72194;SDS011;60095;50.180;9.032;2022-07-21T09:52:17;4.38;;;1.98;;
72194;SDS011;60095;50.180;9.032;2022-07-21T09:54:43;2.92;;;2.60;;
72194;SDS011;60095;50.180;9.032;2022-07-21T09:57:11;1.73;;;1.63;;
72194;SDS011;60095;50.180;9.032;2022-07-21T09:59:38;6.07;;;2.17;;
72194;SDS011;60095;50.180;9.032;2022-07-21T10:02:04;3.85;;;2.53;;
72194;SDS011;60095;50.180;9.032;2022-07-21T10:04:31;2.95;;;2.33;;
72194;SDS011;60095;50.180;9.032;2022-07-21T10:07:00;3.25;;;2.50;;
72194;SDS011;60095;50.180;9.032;2022-07-21T10:09:26;2.00;;;1.80;;
72194;SDS011;60095;50.180;9.032;2022-07-21T10:11:53;3.35;;;2.53;;
72194;SDS011;60095;50.180;9.032;2022-07-21T10:14:21;2.60;;;1.83;;
72194;SDS011;60095;50.180;9.032;2022-07-21T10:16:47;2.35;;;2.15;;
72194;SDS011;60095;50.180;9.032;2022-07-21T10:19:14;3.25;;;1.88;;
72194;SDS011;60095;50.180;9.032;2022-07-21T10:21:45;2.53;;;2.33;;
72194;SDS011;60095;50.180;9.032;2022-07-21T10:24:12;2.80;;;2.60;;
72194;SDS011;60095;50.180;9.032;2022-07-21T10:26:39;2.75;;;2.30;;
72194;SDS011;60095;50.180;9.032;2022-07-21T10:29:49;2.83;;;2.60;;
72194;SDS011;60095;50.180;9.032;2022-07-21T10:32:17;2.38;;;2.17;;
72194;SDS011;60095;50.180;9.032;2022-07-21T10:34:44;2.50;;;2.15;;
72194;SDS011;60095;50.180;9.032;2022-07-21T10:37:11;3.28;;;2.08;;
72194;SDS011;60095;50.180;9.032;2022-07-21T10:39:37;1.92;;;1.83;;
72194;SDS011;60095;50.180;9.032;2022-07-21T10:42:13;2.58;;;1.67;;
72194;SDS011;60095;50.180;9.032;2022-07-21T10:44:43;3.35;;;1.90;;
72194;SDS011;60095;50.180;9.032;2022-07-21T10:47:12;1.75;;;1.60;;
72194;SDS011;60095;50.180;9.032;2022-07-21T10:49:44;2.55;;;1.90;;
72194;SDS011;60095;50.180;9.032;2022-07-21T10:55:13;2.05;;;1.48;;
72194;SDS011;60095;50.180;9.032;2022-07-21T10:57:42;2.85;;;1.50;;
72194;SDS011;60095;50.180;9.032;2022-07-21T11:00:16;6.10;;;1.83;;
72194;SDS011;60095;50.180;9.032;2022-07-21T11:02:45;3.75;;;1.45;;
72194;SDS011;60095;50.180;9.032;2022-07-21T11:05:12;2.45;;;2.25;;
72194;SDS011;60095;50.180;9.032;2022-07-21T11:10:23;1.83;;;1.40;;
72194;SDS011;60095;50.180;9.032;2022-07-21T11:12:54;3.20;;;2.17;;
72194;SDS011;60095;50.180;9.032;2022-07-21T11:18:03;2.03;;;1.65;;
72194;SDS011;60095;50.180;9.032;2022-07-21T11:20:30;1.63;;;1.48;;
72194;SDS011;60095;50.180;9.032;2022-07-21T11:22:56;1.33;;;1.23;;
72194;SDS011;60095;50.180;9.032;2022-07-21T11:25:28;2.88;;;1.88;;
72194;SDS011;60095;50.180;9.032;2022-07-21T11:27:54;4.10;;;2.17;;
72194;SDS011;60095;50.180;9.032;2022-07-21T11:30:20;3.78;;;2.15;;
72194;SDS011;60095;50.180;9.032;2022-07-21T11:32:47;2.13;;;1.92;;
72194;SDS011;60095;50.180;9.032;2022-07-21T11:35:15;1.92;;;1.75;;
72194;SDS011;60095;50.180;9.032;2022-07-21T11:37:43;5.75;;;1.95;;
72194;SDS011;60095;50.180;9.032;2022-07-21T11:40:11;1.98;;;1.52;;
72194;SDS011;60095;50.180;9.032;2022-07-21T11:42:38;2.88;;;2.22;;
72194;SDS011;60095;50.180;9.032;2022-07-21T11:45:05;2.35;;;1.77;;
72194;SDS011;60095;50.180;9.032;2022-07-21T11:47:32;5.50;;;1.98;;
72194;SDS011;60095;50.180;9.032;2022-07-21T11:49:59;2.90;;;2.17;;
72194;SDS011;60095;50.180;9.032;2022-07-21T11:52:27;2.95;;;2.22;;
72194;SDS011;60095;50.180;9.032;2022-07-21T11:54:55;2.13;;;1.92;;
72194;SDS011;60095;50.180;9.032;2022-07-21T11:57:22;2.90;;;2.05;;
72194;SDS011;60095;50.180;9.032;2022-07-21T11:59:49;2.58;;;1.92;;
72194;SDS011;60095;50.180;9.032;2022-07-21T12:02:16;2.47;;;1.85;;
72194;SDS011;60095;50.180;9.032;2022-07-21T12:04:43;3.03;;;2.05;;
72194;SDS011;60095;50.180;9.032;2022-07-21T12:07:11;3.28;;;2.25;;
72194;SDS011;60095;50.180;9.032;2022-07-21T12:09:40;2.72;;;2.00;;
72194;SDS011;60095;50.180;9.032;2022-07-21T12:12:07;4.32;;;1.90;;
72194;SDS011;60095;50.180;9.032;2022-07-21T12:14:40;2.70;;;1.90;;
72194;SDS011;60095;50.180;9.032;2022-07-21T12:17:07;2.38;;;2.08;;
72194;SDS011;60095;50.180;9.032;2022-07-21T12:19:33;1.90;;;1.58;;
72194;SDS011;60095;50.180;9.032;2022-07-21T12:21:59;3.70;;;1.75;;
72194;SDS011;60095;50.180;9.032;2022-07-21T12:27:11;1.73;;;1.55;;
72194;SDS011;60095;50.180;9.032;2022-07-21T12:29:37;2.08;;;1.60;;
72194;SDS011;60095;50.180;9.032;2022-07-21T12:32:04;1.98;;;1.38;;
72194;SDS011;60095;50.180;9.032;2022-07-21T12:34:30;1.60;;;1.15;;
72194;SDS011;60095;50.180;9.032;2022-07-21T12:36:56;1.58;;;1.25;;
72194;SDS011;60095;50.180;9.032;2022-07-21T12:39:24;1.92;;;1.30;;
72194;SDS011;60095;50.180;9.032;2022-07-21T12:42:05;2.70;;;0.93;;
72194;SDS011;60095;50.180;9.032;2022-07-21T12:44:33;2.92;;;1.08;;
72194;SDS011;60095;50.180;9.032;2022-07-21T12:47:13;1.88;;;0.95;;
72194;SDS011;60095;50.180;9.032;2022-07-21T12:49:56;1.35;;;1.17;;
72194;SDS011;60095;50.180;9.032;2022-07-21T12:52:23;2.33;;;1.20;;
72194;SDS011;60095;50.180;9.032;2022-07-21T12:54:49;2.45;;;1.73;;
72194;SDS011;60095;50.180;9.032;2022-07-21T12:57:16;0.88;;;0.55;;
72194;SDS011;60095;50.180;9.032;2022-07-21T12:59:43;3.78;;;1.05;;
72194;SDS011;60095;50.180;9.032;2022-07-21T13:02:10;1.30;;;1.20;;
72194;SDS011;60095;50.180;9.032;2022-07-21T13:04:36;1.25;;;0.88;;
72194;SDS011;60095;50.180;9.032;2022-07-21T13:07:02;4.10;;;1.40;;
72194;SDS011;60095;50.180;9.032;2022-07-21T13:09:29;0.80;;;0.63;;
72194;SDS011;60095;50.180;9.032;2022-07-21T13:11:55;1.52;;;0.65;;
72194;SDS011;60095;50.180;9.032;2022-07-21T13:14:22;1.42;;;1.25;;
72194;SDS011;60095;50.180;9.032;2022-07-21T13:16:50;2.20;;;1.60;;
72194;SDS011;60095;50.180;9.032;2022-07-21T13:19:17;2.83;;;1.25;;
72194;SDS011;60095;50.180;9.032;2022-07-21T13:21:44;3.30;;;1.48;;
72194;SDS011;60095;50.180;9.032;2022-07-21T13:24:10;3.60;;;1.30;;
72194;SDS011;60095;50.180;9.032;2022-07-21T13:26:36;1.85;;;1.38;;
72194;SDS011;60095;50.180;9.032;2022-07-21T13:29:03;2.65;;;1.13;;
72194;SDS011;60095;50.180;9.032;2022-07-21T13:31:33;1.60;;;1.25;;
72194;SDS011;60095;50.180;9.032;2022-07-21T13:34:02;1.98;;;0.98;;
72194;SDS011;60095;50.180;9.032;2022-07-21T13:36:31;1.00;;;0.90;;
72194;SDS011;60095;50.180;9.032;2022-07-21T13:38:58;1.60;;;1.25;;
72194;SDS011;60095;50.180;9.032;2022-07-21T13:41:24;2.45;;;1.67;;
72194;SDS011;60095;50.180;9.032;2022-07-21T13:43:51;2.70;;;1.85;;
72194;SDS011;60095;50.180;9.032;2022-07-21T13:46:17;1.80;;;1.38;;
72194;SDS011;60095;50.180;9.032;2022-07-21T13:48:43;6.40;;;1.75;;
72194;SDS011;60095;50.180;9.032;2022-07-21T13:51:12;2.08;;;1.50;;
72194;SDS011;60095;50.180;9.032;2022-07-21T13:53:39;5.95;;;1.40;;
72194;SDS011;60095;50.180;9.032;2022-07-21T13:56:06;4.70;;;1.15;;
72194;SDS011;60095;50.180;9.032;2022-07-21T13:58:32;3.70;;;2.03;;
72194;SDS011;60095;50.180;9.032;2022-07-21T14:00:59;3.50;;;1.40;;
72194;SDS011;60095;50.180;9.032;2022-07-21T14:03:25;1.73;;;1.40;;
72194;SDS011;60095;50.180;9.032;2022-07-21T14:05:51;2.08;;;1.88;;
72194;SDS011;60095;50.180;9.032;2022-07-21T14:08:19;3.53;;;1.52;;
72194;SDS011;60095;50.180;9.032;2022-07-21T14:10:45;2.53;;;1.17;;
72194;SDS011;60095;50.180;9.032;2022-07-21T14:13:12;4.40;;;2.03;;
72194;SDS011;60095;50.180;9.032;2022-07-21T14:15:38;3.03;;;1.85;;
72194;SDS011;60095;50.180;9.032;2022-07-21T14:18:05;2.22;;;1.45;;
72194;SDS011;60095;50.180;9.032;2022-07-21T14:20:31;1.58;;;1.35;;
72194;SDS011;60095;50.180;9.032;2022-07-21T14:22:57;4.05;;;2.50;;
72194;SDS011;60095;50.180;9.032;2022-07-21T14:25:25;4.50;;;2.05;;
72194;SDS011;60095;50.180;9.032;2022-07-21T14:27:52;2.58;;;2.38;;
72194;SDS011;60095;50.180;9.032;2022-07-21T14:30:19;4.05;;;3.03;;
72194;SDS011;60095;50.180;9.032;2022-07-21T14:32:46;3.22;;;2.53;;
72194;SDS011;60095;50.180;9.032;2022-07-21T14:35:13;2.50;;;1.83;;
72194;SDS011;60095;50.180;9.032;2022-07-21T14:37:41;3.95;;;3.08;;
72194;SDS011;60095;50.180;9.032;2022-07-21T14:40:08;2.45;;;1.95;;
72194;SDS011;60095;50.180;9.032;2022-07-21T14:42:36;3.53;;;2.95;;
72194;SDS011;60095;50.180;9.032;2022-07-21T14:45:03;2.25;;;2.05;;
72194;SDS011;60095;50.180;9.032;2022-07-21T14:47:30;6.13;;;2.97;;
72194;SDS011;60095;50.180;9.032;2022-07-21T14:49:56;2.92;;;1.55;;
72194;SDS011;60095;50.180;9.032;2022-07-21T14:52:22;2.78;;;2.58;;